createdAt,value
2022-11-18T00:01:33.109Z,-0.16
2022-11-18T00:04:01.880Z,-0.15
2022-11-18T00:06:31.559Z,-0.16
2022-11-18T00:09:01.354Z,-0.19
2022-11-18T00:11:48.238Z,-0.21
2022-11-18T00:14:21.333Z,-0.19
2022-11-18T00:16:53.142Z,-0.17
2022-11-18T00:19:22.101Z,-0.15
2022-11-18T00:21:51.150Z,-0.12
2022-11-18T00:24:20.084Z,-0.05
2022-11-18T00:26:48.981Z,-0.03
2022-11-18T00:29:20.741Z,-0.05
2022-11-18T00:31:49.556Z,-0.12
2022-11-18T00:34:19.623Z,-0.15
2022-11-18T00:36:49.298Z,-0.17
2022-11-18T00:39:19.807Z,-0.16
2022-11-18T00:42:06.680Z,-0.21
2022-11-18T00:44:37.124Z,-0.18
2022-11-18T00:47:06.041Z,-0.19
2022-11-18T00:49:34.454Z,-0.20
2022-11-18T00:52:02.815Z,-0.19
2022-11-18T00:54:31.138Z,-0.18
2022-11-18T00:56:59.578Z,-0.22
2022-11-18T00:59:28.212Z,-0.23
2022-11-18T01:01:58.204Z,-0.23
2022-11-18T01:04:26.604Z,-0.23
2022-11-18T01:06:55.263Z,-0.27
2022-11-18T01:09:24.115Z,-0.26
2022-11-18T01:12:09.451Z,-0.27
2022-11-18T01:14:37.762Z,-0.31
2022-11-18T01:17:07.666Z,-0.30
2022-11-18T01:19:36.816Z,-0.30
2022-11-18T01:22:05.498Z,-0.32
2022-11-18T01:24:35.323Z,-0.35
2022-11-18T01:27:04.081Z,-0.39
2022-11-18T01:29:32.679Z,-0.43
2022-11-18T01:32:23.218Z,-0.44
2022-11-18T01:34:51.339Z,-0.45
2022-11-18T01:37:19.780Z,-0.40
2022-11-18T01:39:48.097Z,-0.39
2022-11-18T01:42:18.133Z,-0.41
2022-11-18T01:45:16.814Z,-0.46
2022-11-18T01:47:48.964Z,-0.48
2022-11-18T01:50:21.799Z,-0.48
2022-11-18T01:52:52.360Z,-0.48
2022-11-18T01:55:26.036Z,-0.45
2022-11-18T01:58:03.619Z,-0.50
2022-11-18T02:00:32.322Z,-0.52
2022-11-18T02:03:03.347Z,-0.57
2022-11-18T02:05:35.236Z,-0.61
2022-11-18T02:08:04.901Z,-0.60
2022-11-18T02:10:33.462Z,-0.59
2022-11-18T02:13:02.848Z,-0.61
2022-11-18T02:15:46.751Z,-0.63
2022-11-18T02:18:25.831Z,-0.64
2022-11-18T02:21:00.483Z,-0.65
2022-11-18T02:23:55.352Z,-0.61
2022-11-18T02:27:03.316Z,-0.61
2022-11-18T02:29:37.396Z,-0.62
2022-11-18T02:32:13.250Z,-0.63
2022-11-18T02:34:49.591Z,-0.61
2022-11-18T02:37:26.821Z,-0.62
2022-11-18T02:40:01.812Z,-0.61
2022-11-18T02:42:34.296Z,-0.61
2022-11-18T02:45:08.158Z,-0.62
2022-11-18T02:47:38.785Z,-0.61
2022-11-18T02:50:12.613Z,-0.61
2022-11-18T02:52:44.162Z,-0.60
2022-11-18T02:55:15.715Z,-0.60
2022-11-18T02:57:46.190Z,-0.61
2022-11-18T03:00:18.337Z,-0.57
2022-11-18T03:02:49.062Z,-0.56
2022-11-18T03:05:23.088Z,-0.55
2022-11-18T03:07:58.075Z,-0.59
2022-11-18T03:10:33.458Z,-0.60
2022-11-18T03:13:11.803Z,-0.60
2022-11-18T03:15:49.607Z,-0.61
2022-11-18T03:18:26.826Z,-0.63
2022-11-18T03:21:00.152Z,-0.63
2022-11-18T03:23:37.408Z,-0.64
2022-11-18T03:26:11.292Z,-0.63
2022-11-18T03:28:47.992Z,-0.63
2022-11-18T03:31:23.103Z,-0.63
2022-11-18T03:33:55.787Z,-0.61
2022-11-18T03:36:28.434Z,-0.58
2022-11-18T03:39:04.625Z,-0.58
2022-11-18T03:41:39.434Z,-0.56
2022-11-18T03:44:13.983Z,-0.55
2022-11-18T03:46:47.748Z,-0.58
2022-11-18T03:49:22.005Z,-0.61
2022-11-18T03:51:55.607Z,-0.67
2022-11-18T03:54:29.145Z,-0.70
2022-11-18T03:57:00.867Z,-0.71
2022-11-18T03:59:34.684Z,-0.72
2022-11-18T04:02:09.536Z,-0.72
2022-11-18T04:04:38.406Z,-0.73
2022-11-18T04:07:13.264Z,-0.72
2022-11-18T04:09:46.061Z,-0.71
2022-11-18T04:12:19.465Z,-0.74
2022-11-18T04:14:50.008Z,-0.73
2022-11-18T04:17:23.128Z,-0.73
2022-11-18T04:19:51.885Z,-0.71
2022-11-18T04:22:20.378Z,-0.74
2022-11-18T04:24:49.134Z,-0.75
2022-11-18T04:27:17.525Z,-0.73
2022-11-18T04:29:46.124Z,-0.74
2022-11-18T04:32:14.457Z,-0.74
2022-11-18T04:34:44.734Z,-0.72
2022-11-18T04:37:12.919Z,-0.72
2022-11-18T04:39:41.319Z,-0.74
2022-11-18T04:42:10.148Z,-0.74
2022-11-18T04:44:38.496Z,-0.73
2022-11-18T04:47:08.446Z,-0.73
2022-11-18T04:49:37.187Z,-0.75
2022-11-18T04:52:07.395Z,-0.74
2022-11-18T04:54:35.961Z,-0.71
2022-11-18T04:57:04.718Z,-0.71
2022-11-18T04:59:33.142Z,-0.71
2022-11-18T05:02:02.115Z,-0.71
2022-11-18T05:04:32.774Z,-0.72
2022-11-18T05:07:03.317Z,-0.72
2022-11-18T05:09:34.341Z,-0.70
2022-11-18T05:12:20.793Z,-0.70
2022-11-18T05:14:50.846Z,-0.68
2022-11-18T05:17:20.420Z,-0.67
2022-11-18T05:19:48.938Z,-0.67
2022-11-18T05:22:17.738Z,-0.68
2022-11-18T05:24:47.824Z,-0.67
2022-11-18T05:27:16.454Z,-0.65
2022-11-18T05:29:44.925Z,-0.64
2022-11-18T05:32:13.563Z,-0.64
2022-11-18T05:34:43.724Z,-0.64
2022-11-18T05:37:13.802Z,-0.61
2022-11-18T05:39:42.320Z,-0.57
2022-11-18T05:42:30.881Z,-0.57
2022-11-18T05:44:59.305Z,-0.57
2022-11-18T05:47:49.857Z,-0.61
2022-11-18T05:50:21.445Z,-0.53
2022-11-18T05:52:50.311Z,-0.55
2022-11-18T05:55:20.935Z,-0.52
2022-11-18T05:57:51.612Z,-0.55
2022-11-18T06:00:20.328Z,-0.54
2022-11-18T06:02:52.237Z,-0.54
2022-11-18T06:05:23.431Z,-0.55
2022-11-18T06:07:58.102Z,-0.59
2022-11-18T06:10:30.570Z,-0.62
2022-11-18T06:13:04.297Z,-0.58
2022-11-18T06:15:36.764Z,-0.60
2022-11-18T06:18:09.499Z,-0.63
2022-11-18T06:20:40.421Z,-0.58
2022-11-18T06:23:10.581Z,-0.57
2022-11-18T06:25:41.362Z,-0.59
2022-11-18T06:28:13.729Z,-0.59
2022-11-18T06:30:42.193Z,-0.62
2022-11-18T06:33:13.776Z,-0.61
2022-11-18T06:35:43.534Z,-0.61
2022-11-18T06:38:12.019Z,-0.62
2022-11-18T06:40:40.494Z,-0.56
2022-11-18T06:43:27.067Z,-0.51
2022-11-18T06:46:17.428Z,-0.44
2022-11-18T06:48:46.804Z,-0.43
2022-11-18T06:51:15.283Z,-0.46
2022-11-18T06:53:44.081Z,-0.48
2022-11-18T06:56:14.825Z,-0.51
2022-11-18T06:58:44.227Z,-0.54
2022-11-18T07:01:16.734Z,-0.50
2022-11-18T07:03:47.546Z,-0.51
2022-11-18T07:06:17.804Z,-0.50
2022-11-18T07:08:46.962Z,-0.49
2022-11-18T07:11:17.858Z,-0.50
2022-11-18T07:13:47.140Z,-0.48
2022-11-18T07:16:19.087Z,-0.48
2022-11-18T07:18:49.110Z,-0.43
2022-11-18T07:21:19.799Z,-0.40
2022-11-18T07:23:49.017Z,-0.40
2022-11-18T07:26:18.122Z,-0.41
2022-11-18T07:28:46.875Z,-0.41
2022-11-18T07:31:18.501Z,-0.41
2022-11-18T07:33:47.910Z,-0.41
2022-11-18T07:36:18.092Z,-0.41
2022-11-18T07:38:48.063Z,-0.40
2022-11-18T07:41:18.638Z,-0.38
2022-11-18T07:43:48.137Z,-0.34
2022-11-18T07:46:21.120Z,-0.32
2022-11-18T07:48:51.203Z,-0.31
2022-11-18T07:51:21.954Z,-0.23
2022-11-18T07:53:51.131Z,-0.14
2022-11-18T07:56:20.372Z,-0.09
2022-11-18T07:58:49.894Z,-0.13
2022-11-18T08:01:22.249Z,-0.17
2022-11-18T08:03:51.818Z,-0.21
2022-11-18T08:06:20.785Z,-0.22
2022-11-18T08:08:49.822Z,-0.19
2022-11-18T08:11:22.618Z,-0.18
2022-11-18T08:13:52.519Z,-0.17
2022-11-18T08:16:25.154Z,-0.16
2022-11-18T08:18:54.719Z,-0.11
2022-11-18T08:21:24.710Z,-0.03
2022-11-18T08:23:53.392Z,-0.01
2022-11-18T08:26:23.135Z,0.03
2022-11-18T08:28:51.980Z,0.08
2022-11-18T08:31:22.947Z,0.12
2022-11-18T08:33:56.029Z,0.15
2022-11-18T08:36:27.069Z,0.13
2022-11-18T08:38:57.419Z,0.13
2022-11-18T08:41:32.749Z,0.13
2022-11-18T08:44:01.354Z,0.11
2022-11-18T08:46:29.839Z,0.15
2022-11-18T08:49:00.113Z,0.26
2022-11-18T08:51:29.559Z,0.31
2022-11-18T08:53:58.898Z,0.28
2022-11-18T08:56:27.426Z,0.33
2022-11-18T08:58:57.116Z,0.32
2022-11-18T09:01:26.214Z,0.27
2022-11-18T09:04:01.542Z,0.23
2022-11-18T09:06:35.698Z,0.25
2022-11-18T09:09:06.636Z,0.23
2022-11-18T09:11:39.398Z,0.17
2022-11-18T09:17:01.194Z,0.16
2022-11-18T09:19:48.382Z,0.14
2022-11-18T09:22:19.517Z,0.13
2022-11-18T09:24:50.729Z,0.13
2022-11-18T09:27:21.786Z,0.13
2022-11-18T09:29:51.326Z,0.17
2022-11-18T09:32:21.951Z,0.13
2022-11-18T09:34:52.015Z,0.13
2022-11-18T09:37:33.891Z,0.15
2022-11-18T09:40:04.015Z,0.13
2022-11-18T09:42:53.603Z,0.08
2022-11-18T09:45:26.964Z,0.03
2022-11-18T09:48:00.584Z,0.03
2022-11-18T09:53:22.733Z,0.08
2022-11-18T09:55:53.503Z,0.04
2022-11-18T09:58:29.225Z,-0.01
2022-11-18T10:00:57.849Z,-0.05
2022-11-18T10:03:30.023Z,-0.11
2022-11-18T10:06:01.806Z,-0.11
2022-11-18T10:08:37.324Z,-0.08
2022-11-18T10:11:13.748Z,-0.02
2022-11-18T10:13:53.548Z,0.00
2022-11-18T10:16:33.800Z,0.05
2022-11-18T10:19:13.096Z,0.05
2022-11-18T10:21:53.362Z,0.04
2022-11-18T10:24:25.648Z,0.02
2022-11-18T10:26:56.956Z,0.03
2022-11-18T10:29:26.414Z,0.03
2022-11-18T10:32:03.828Z,0.04
2022-11-18T10:34:35.075Z,0.01
2022-11-18T10:37:06.929Z,0.06
2022-11-18T10:39:51.649Z,0.01
2022-11-18T10:42:28.733Z,-0.04
2022-11-18T10:45:15.799Z,0.03
2022-11-18T10:47:44.497Z,-0.01
2022-11-18T10:50:30.750Z,-0.05
2022-11-18T10:52:59.417Z,-0.04
2022-11-18T10:55:30.042Z,-0.07
2022-11-18T10:58:03.104Z,-0.10
2022-11-18T11:00:42.465Z,-0.11
2022-11-18T11:03:36.291Z,-0.11
2022-11-18T11:06:30.375Z,-0.10
2022-11-18T11:09:02.780Z,-0.14
2022-11-18T11:11:35.200Z,-0.11
2022-11-18T11:14:18.721Z,-0.03
2022-11-18T11:16:54.878Z,-0.04
2022-11-18T11:19:26.708Z,-0.08
2022-11-18T11:21:55.041Z,-0.10
2022-11-18T11:24:27.530Z,-0.12
2022-11-18T11:30:12.488Z,-0.11
2022-11-18T11:33:10.300Z,-0.06
2022-11-18T11:35:48.344Z,-0.05
2022-11-18T11:38:27.908Z,-0.01
2022-11-18T11:41:07.516Z,0.03
2022-11-18T11:43:49.777Z,0.08
2022-11-18T11:46:29.503Z,0.12
2022-11-18T11:49:11.938Z,0.13
2022-11-18T11:51:48.844Z,0.13
2022-11-18T11:54:41.908Z,0.15
2022-11-18T11:57:24.824Z,0.18
2022-11-18T12:00:03.385Z,0.23
2022-11-18T12:02:55.184Z,0.27
2022-11-18T12:05:31.271Z,0.31
2022-11-18T12:08:01.834Z,0.38
2022-11-18T12:10:37.224Z,0.36
2022-11-18T12:13:20.935Z,0.31
2022-11-18T12:16:00.324Z,0.27
2022-11-18T12:18:38.810Z,0.26
2022-11-18T12:21:07.376Z,0.28
2022-11-18T12:23:36.761Z,0.26
2022-11-18T12:26:10.887Z,0.18
2022-11-18T12:28:42.400Z,0.20
2022-11-18T12:31:40.507Z,0.28
2022-11-18T12:34:33.409Z,0.28
2022-11-18T12:37:34.751Z,0.32
2022-11-18T12:40:03.836Z,0.40
2022-11-18T12:42:59.321Z,0.47
2022-11-18T12:45:53.134Z,0.52
2022-11-18T12:48:38.243Z,0.54
2022-11-18T12:51:45.266Z,0.54
2022-11-18T12:54:27.886Z,0.52
2022-11-18T12:56:59.204Z,0.48
2022-11-18T12:59:30.287Z,0.44
2022-11-18T13:02:37.682Z,0.46
2022-11-18T13:05:10.695Z,0.45
2022-11-18T13:08:04.707Z,0.39
2022-11-18T13:10:39.095Z,0.36
2022-11-18T13:13:20.293Z,0.37
2022-11-18T13:16:09.616Z,0.27
2022-11-18T13:18:49.621Z,0.19
2022-11-18T13:21:45.875Z,0.14
2022-11-18T13:24:15.448Z,0.14
2022-11-18T13:26:47.426Z,0.11
2022-11-18T13:29:27.841Z,0.10
2022-11-18T13:32:09.767Z,0.03
2022-11-18T13:34:48.375Z,0.01
2022-11-18T13:37:21.744Z,0.04
2022-11-18T13:39:54.055Z,0.06
2022-11-18T13:42:24.237Z,0.08
2022-11-18T13:44:57.650Z,0.10
2022-11-18T13:47:32.452Z,0.06
2022-11-18T13:50:07.365Z,0.04
2022-11-18T13:52:41.147Z,0.04
2022-11-18T13:55:19.743Z,0.05
2022-11-18T13:57:51.681Z,0.05
2022-11-18T14:00:25.595Z,0.03
2022-11-18T14:02:59.195Z,0.02
2022-11-18T14:05:28.183Z,0.02
2022-11-18T14:08:06.457Z,-0.04
2022-11-18T14:10:44.180Z,-0.07
2022-11-18T14:13:24.009Z,-0.05
2022-11-18T14:15:53.482Z,-0.07
2022-11-18T14:18:32.790Z,-0.09
2022-11-18T14:21:03.164Z,-0.11
2022-11-18T14:23:35.292Z,-0.11
2022-11-18T14:26:08.420Z,-0.16
2022-11-18T14:28:40.536Z,-0.20
2022-11-18T14:31:25.411Z,-0.22
2022-11-18T14:34:22.412Z,-0.18
2022-11-18T14:36:52.251Z,-0.18
2022-11-18T14:39:26.847Z,-0.19
2022-11-18T14:41:56.750Z,-0.24
2022-11-18T14:44:27.655Z,-0.24
2022-11-18T14:47:00.736Z,-0.21
2022-11-18T14:49:31.834Z,-0.21
2022-11-18T14:52:03.016Z,-0.23
2022-11-18T14:54:33.466Z,-0.23
2022-11-18T14:57:05.781Z,-0.28
2022-11-18T14:59:35.143Z,-0.24
2022-11-18T15:02:03.989Z,-0.25
2022-11-18T15:04:32.621Z,-0.30
2022-11-18T15:07:01.425Z,-0.35
2022-11-18T15:09:30.235Z,-0.38
2022-11-18T15:12:03.905Z,-0.39
2022-11-18T15:14:32.562Z,-0.38
2022-11-18T15:17:01.214Z,-0.43
2022-11-18T15:19:32.189Z,-0.45
2022-11-18T15:22:01.897Z,-0.45
2022-11-18T15:24:30.845Z,-0.43
2022-11-18T15:27:05.359Z,-0.44
2022-11-18T15:29:34.065Z,-0.50
2022-11-18T15:32:05.329Z,-0.50
2022-11-18T15:34:34.162Z,-0.52
2022-11-18T15:37:02.554Z,-0.51
2022-11-18T15:39:31.276Z,-0.53
2022-11-18T15:42:01.536Z,-0.51
2022-11-18T15:44:30.580Z,-0.51
2022-11-18T15:47:00.217Z,-0.51
2022-11-18T15:49:29.158Z,-0.50
2022-11-18T15:51:57.947Z,-0.49
2022-11-18T15:54:26.388Z,-0.51
2022-11-18T15:56:54.746Z,-0.50
2022-11-18T15:59:24.959Z,-0.50
2022-11-18T16:01:56.995Z,-0.50
2022-11-18T16:04:25.350Z,-0.52
2022-11-18T16:06:54.545Z,-0.52
2022-11-18T16:09:23.766Z,-0.59
2022-11-18T16:12:10.002Z,-0.60
2022-11-18T16:14:39.971Z,-0.60
2022-11-18T16:17:08.457Z,-0.63
2022-11-18T16:19:37.418Z,-0.65
2022-11-18T16:22:05.941Z,-0.63
2022-11-18T16:24:34.909Z,-0.63
2022-11-18T16:27:04.724Z,-0.59
2022-11-18T16:29:33.519Z,-0.57
2022-11-18T16:32:03.429Z,-0.55
2022-11-18T16:34:32.710Z,-0.56
2022-11-18T16:37:01.565Z,-0.57
2022-11-18T16:39:30.973Z,-0.57
2022-11-18T16:42:07.925Z,-0.58
2022-11-18T16:44:37.146Z,-0.56
2022-11-18T16:47:14.300Z,-0.53
2022-11-18T16:49:44.134Z,-0.48
2022-11-18T16:52:12.719Z,-0.49
2022-11-18T16:54:45.338Z,-0.49
2022-11-18T16:57:15.490Z,-0.51
2022-11-18T16:59:44.150Z,-0.51
2022-11-18T17:02:15.767Z,-0.49
2022-11-18T17:04:44.375Z,-0.46
2022-11-18T17:07:13.902Z,-0.49
2022-11-18T17:09:42.661Z,-0.48
2022-11-18T17:12:11.144Z,-0.45
2022-11-18T17:14:40.487Z,-0.45
2022-11-18T17:17:11.029Z,-0.45
2022-11-18T17:19:40.946Z,-0.46
2022-11-18T17:22:09.579Z,-0.44
2022-11-18T17:24:38.363Z,-0.43
2022-11-18T17:27:06.931Z,-0.40
2022-11-18T17:29:35.879Z,-0.38
2022-11-18T17:32:04.341Z,-0.36
2022-11-18T17:34:32.870Z,-0.33
2022-11-18T17:37:06.815Z,-0.34
2022-11-18T17:39:37.670Z,-0.35
2022-11-18T17:42:18.016Z,-0.39
2022-11-18T17:44:46.905Z,-0.38
2022-11-18T17:47:15.323Z,-0.40
2022-11-18T17:49:44.029Z,-0.40
2022-11-18T17:52:14.526Z,-0.40
2022-11-18T17:54:43.279Z,-0.40
2022-11-18T17:57:12.216Z,-0.41
2022-11-18T17:59:40.736Z,-0.40
2022-11-18T18:02:12.941Z,-0.38
2022-11-18T18:04:41.292Z,-0.39
2022-11-18T18:07:09.717Z,-0.42
2022-11-18T18:09:39.639Z,-0.42
2022-11-18T18:12:22.391Z,-0.42
2022-11-18T18:14:51.398Z,-0.45
2022-11-18T18:17:20.299Z,-0.48
2022-11-18T18:19:48.749Z,-0.48
2022-11-18T18:22:17.139Z,-0.48
2022-11-18T18:24:47.092Z,-0.50
2022-11-18T18:27:15.596Z,-0.52
2022-11-18T18:29:44.427Z,-0.56
2022-11-18T18:32:13.218Z,-0.53
2022-11-18T18:34:41.765Z,-0.54
2022-11-18T18:37:10.215Z,-0.51
2022-11-18T18:39:38.591Z,-0.51
2022-11-18T18:42:08.631Z,-0.50
2022-11-18T18:44:51.668Z,-0.55
2022-11-18T18:47:21.856Z,-0.59
2022-11-18T18:49:50.338Z,-0.60
2022-11-18T18:52:19.444Z,-0.59
2022-11-18T18:54:48.749Z,-0.55
2022-11-18T18:57:19.258Z,-0.57
2022-11-18T18:59:47.995Z,-0.54
2022-11-18T19:02:16.441Z,-0.55
2022-11-18T19:04:46.845Z,-0.59
2022-11-18T19:07:16.974Z,-0.54
2022-11-18T19:09:45.616Z,-0.52
2022-11-18T19:12:31.750Z,-0.59
2022-11-18T19:15:02.235Z,-0.66
2022-11-18T19:17:31.098Z,-0.64
2022-11-18T19:20:17.136Z,-0.65
2022-11-18T19:22:45.964Z,-0.59
2022-11-18T19:25:14.390Z,-0.57
2022-11-18T19:27:43.742Z,-0.56
2022-11-18T19:30:14.715Z,-0.58
2022-11-18T19:32:43.971Z,-0.59
2022-11-18T19:35:13.061Z,-0.59
2022-11-18T19:37:41.986Z,-0.56
2022-11-18T19:40:12.179Z,-0.60
2022-11-18T19:42:42.083Z,-0.62
2022-11-18T19:45:13.313Z,-0.67
2022-11-18T19:47:44.077Z,-0.73
2022-11-18T19:50:13.116Z,-0.79
2022-11-18T19:52:41.484Z,-0.81
2022-11-18T19:55:11.046Z,-0.80
2022-11-18T19:57:39.820Z,-0.79
2022-11-18T20:00:10.032Z,-0.81
2022-11-18T20:02:40.563Z,-0.77
2022-11-18T20:05:26.892Z,-0.77
2022-11-18T20:07:56.978Z,-0.86
2022-11-18T20:10:25.472Z,-0.90
2022-11-18T20:12:54.002Z,-0.91
2022-11-18T20:15:22.733Z,-0.90
2022-11-18T20:17:54.894Z,-0.92
2022-11-18T20:20:25.485Z,-0.89
2022-11-18T20:22:55.045Z,-0.89
2022-11-18T20:25:27.446Z,-0.92
2022-11-18T20:27:56.304Z,-0.97
2022-11-18T20:30:24.800Z,-0.99
2022-11-18T20:32:54.791Z,-1.00
2022-11-18T20:35:23.251Z,-1.05
2022-11-18T20:37:52.401Z,-1.06
2022-11-18T20:40:20.885Z,-1.07
2022-11-18T20:43:07.405Z,-1.05
2022-11-18T20:45:35.937Z,-1.05
2022-11-18T20:48:06.413Z,-1.04
2022-11-18T20:50:37.227Z,-1.08
2022-11-18T20:53:05.904Z,-1.09
2022-11-18T20:55:38.081Z,-1.10
2022-11-18T20:58:07.441Z,-1.07
2022-11-18T21:00:36.002Z,-1.08
2022-11-18T21:03:05.989Z,-1.11
2022-11-18T21:05:36.275Z,-1.11
2022-11-18T21:08:04.895Z,-1.15
2022-11-18T21:10:33.768Z,-1.22
2022-11-18T21:13:19.763Z,-1.25
2022-11-18T21:15:48.507Z,-1.31
2022-11-18T21:18:18.895Z,-1.33
2022-11-18T21:21:04.717Z,-1.39
2022-11-18T21:23:33.491Z,-1.37
2022-11-18T21:26:08.062Z,-1.34
2022-11-18T21:28:43.958Z,-1.34
2022-11-18T21:31:16.328Z,-1.32
2022-11-18T21:33:50.072Z,-1.35
2022-11-18T21:36:23.061Z,-1.39
2022-11-18T21:38:53.735Z,-1.39
2022-11-18T21:41:23.228Z,-1.40
2022-11-18T21:44:09.491Z,-1.37
2022-11-18T21:46:42.992Z,-1.34
2022-11-18T21:49:14.329Z,-1.36
2022-11-18T21:51:46.833Z,-1.32
2022-11-18T21:54:18.617Z,-1.29
2022-11-18T21:56:48.069Z,-1.32
2022-11-18T21:59:19.494Z,-1.32
2022-11-18T22:01:50.902Z,-1.33
2022-11-18T22:04:40.043Z,-1.39
2022-11-18T22:07:09.842Z,-1.39
2022-11-18T22:09:39.385Z,-1.41
2022-11-18T22:12:09.263Z,-1.44
2022-11-18T22:14:37.843Z,-1.45
2022-11-18T22:17:06.655Z,-1.49
2022-11-18T22:19:36.920Z,-1.47
2022-11-18T22:22:05.334Z,-1.46
2022-11-18T22:24:33.994Z,-1.42
2022-11-18T22:27:04.671Z,-1.41
2022-11-18T22:29:35.973Z,-1.36
2022-11-18T22:32:05.458Z,-1.37
2022-11-18T22:34:34.087Z,-1.37
2022-11-18T22:37:06.050Z,-1.40
2022-11-18T22:39:35.307Z,-1.43
2022-11-18T22:42:21.783Z,-1.42
2022-11-18T22:44:50.278Z,-1.41
2022-11-18T22:47:19.067Z,-1.45
2022-11-18T22:49:49.888Z,-1.50
2022-11-18T22:52:22.878Z,-1.47
2022-11-18T22:54:51.306Z,-1.46
2022-11-18T22:57:20.038Z,-1.49
2022-11-18T22:59:48.683Z,-1.49
2022-11-18T23:02:17.387Z,-1.48
2022-11-18T23:04:45.845Z,-1.49
2022-11-18T23:07:14.737Z,-1.52
2022-11-18T23:09:44.655Z,-1.48
2022-11-18T23:12:30.848Z,-1.40
2022-11-18T23:14:59.272Z,-1.38
2022-11-18T23:17:27.584Z,-1.38
2022-11-18T23:19:56.117Z,-1.45
2022-11-18T23:22:24.747Z,-1.49
2022-11-18T23:24:54.889Z,-1.51
2022-11-18T23:27:23.630Z,-1.48
2022-11-18T23:29:51.878Z,-1.46
2022-11-18T23:32:20.847Z,-1.44
2022-11-18T23:34:49.456Z,-1.44
2022-11-18T23:37:18.231Z,-1.48
2022-11-18T23:39:46.577Z,-1.51
2022-11-18T23:42:16.307Z,-1.46
2022-11-18T23:44:49.285Z,-1.50
2022-11-18T23:47:18.953Z,-1.52
2022-11-18T23:49:47.245Z,-1.51
2022-11-18T23:52:16.028Z,-1.49
2022-11-18T23:54:45.040Z,-1.45
2022-11-18T23:57:13.533Z,-1.45
2022-11-18T23:59:43.653Z,-1.43
